JAD weather

Perth Jandakot Airport
Perth, Western Australia, Australia

Public forecast

Using degrees Celsius for public forecast. Weather courtesy of forecast.io.

METAR (pilot weather report)

Retrieved 2017/05/24 07:30 UTC (16 minutes ago):

YPJT 240730Z AUTO 27008KT 9999 // SCT038 20/10 Q1020 RF00.0/000.0

TAF (pilot weather forecast)

Forecast is more than 12 hours old.

Retrieved 2017/05/23 00:00 UTC (1 day ago):

TAF YPJT 232230Z 2400/2418 02005KT 9999 -DZ SCT015 BKN040 FM240400 26008KT 9999 -SHRA BKN035 FM240900 VRB05KT 9999 SCT040 TEMPO 2400/2404 3000 DZ BKN005 INTER 2404/2407 5000 SHRA BKN010 PROB30 2400/2401 0300 FG